sensor_id;sensor_type;location;lat;lon;timestamp;pressure;altitude;pressure_sealevel;temperature
48854;BMP280;34673;52.808;17.856;2022-07-21T00:00:22;100730.88;;;24.23
48854;BMP280;34673;52.808;17.856;2022-07-21T00:02:50;100738.91;;;24.21
48854;BMP280;34673;52.808;17.856;2022-07-21T00:05:18;100730.47;;;24.15
48854;BMP280;34673;52.808;17.856;2022-07-21T00:07:46;100739.06;;;24.18
48854;BMP280;34673;52.808;17.856;2022-07-21T00:10:14;100739.44;;;24.12
48854;BMP280;34673;52.808;17.856;2022-07-21T00:12:42;100740.38;;;24.11
48854;BMP280;34673;52.808;17.856;2022-07-21T00:15:10;100737.91;;;24.08
48854;BMP280;34673;52.808;17.856;2022-07-21T00:17:38;100731.66;;;23.95
48854;BMP280;34673;52.808;17.856;2022-07-21T00:20:07;100736.81;;;23.96
48854;BMP280;34673;52.808;17.856;2022-07-21T00:22:35;100727.63;;;23.87
48854;BMP280;34673;52.808;17.856;2022-07-21T00:25:04;100734.63;;;23.88
48854;BMP280;34673;52.808;17.856;2022-07-21T00:27:33;100728.84;;;23.82
48854;BMP280;34673;52.808;17.856;2022-07-21T00:30:00;100722.91;;;23.78
48854;BMP280;34673;52.808;17.856;2022-07-21T00:32:27;100727.41;;;23.76
48854;BMP280;34673;52.808;17.856;2022-07-21T00:35:03;100727.47;;;23.75
48854;BMP280;34673;52.808;17.856;2022-07-21T00:37:30;100724.19;;;23.71
48854;BMP280;34673;52.808;17.856;2022-07-21T00:39:57;100722.31;;;23.73
48854;BMP280;34673;52.808;17.856;2022-07-21T00:42:27;100710.34;;;23.66
48854;BMP280;34673;52.808;17.856;2022-07-21T00:44:55;100725.28;;;23.67
48854;BMP280;34673;52.808;17.856;2022-07-21T00:47:25;100713.09;;;23.64
48854;BMP280;34673;52.808;17.856;2022-07-21T00:49:53;100729.97;;;23.62
48854;BMP280;34673;52.808;17.856;2022-07-21T00:52:21;100726.72;;;23.57
48854;BMP280;34673;52.808;17.856;2022-07-21T00:54:48;100722.66;;;23.51
48854;BMP280;34673;52.808;17.856;2022-07-21T00:57:16;100732.34;;;23.51
48854;BMP280;34673;52.808;17.856;2022-07-21T00:59:44;100732.34;;;23.51
48854;BMP280;34673;52.808;17.856;2022-07-21T01:02:12;100724.50;;;23.49
48854;BMP280;34673;52.808;17.856;2022-07-21T01:04:39;100717.59;;;23.47
48854;BMP280;34673;52.808;17.856;2022-07-21T01:07:07;100725.72;;;23.43
48854;BMP280;34673;52.808;17.856;2022-07-21T01:09:35;100710.81;;;23.42
48854;BMP280;34673;52.808;17.856;2022-07-21T01:12:03;100720.59;;;23.40
48854;BMP280;34673;52.808;17.856;2022-07-21T01:14:31;100725.72;;;23.43
48854;BMP280;34673;52.808;17.856;2022-07-21T01:17:01;100725.72;;;23.43
48854;BMP280;34673;52.808;17.856;2022-07-21T01:19:29;100724.94;;;23.41
48854;BMP280;34673;52.808;17.856;2022-07-21T01:21:56;100708.66;;;23.33
48854;BMP280;34673;52.808;17.856;2022-07-21T01:24:24;100725.88;;;23.40
48854;BMP280;34673;52.808;17.856;2022-07-21T01:26:52;100721.63;;;23.38
48854;BMP280;34673;52.808;17.856;2022-07-21T01:29:20;100712.84;;;23.37
48854;BMP280;34673;52.808;17.856;2022-07-21T01:31:49;100703.75;;;23.27
48854;BMP280;34673;52.808;17.856;2022-07-21T01:34:16;100717.59;;;23.31
48854;BMP280;34673;52.808;17.856;2022-07-21T01:36:45;100714.13;;;23.30
48854;BMP280;34673;52.808;17.856;2022-07-21T01:39:13;100712.44;;;23.29
48854;BMP280;34673;52.808;17.856;2022-07-21T01:42:00;100700.50;;;23.22
48854;BMP280;34673;52.808;17.856;2022-07-21T01:44:28;100702.03;;;23.26
48854;BMP280;34673;52.808;17.856;2022-07-21T01:46:55;100692.59;;;23.22
48854;BMP280;34673;52.808;17.856;2022-07-21T01:49:23;100698.03;;;23.19
48854;BMP280;34673;52.808;17.856;2022-07-21T01:51:50;100692.66;;;23.20
48854;BMP280;34673;52.808;17.856;2022-07-21T01:54:18;100697.09;;;23.20
48854;BMP280;34673;52.808;17.856;2022-07-21T01:56:50;100684.31;;;23.12
48854;BMP280;34673;52.808;17.856;2022-07-21T01:59:18;100696.31;;;23.18
48854;BMP280;34673;52.808;17.856;2022-07-21T02:01:45;100678.34;;;23.09
48854;BMP280;34673;52.808;17.856;2022-07-21T02:04:14;100687.81;;;23.13
48854;BMP280;34673;52.808;17.856;2022-07-21T02:06:42;100702.88;;;23.11
48854;BMP280;34673;52.808;17.856;2022-07-21T02:09:09;100703.91;;;23.08
48854;BMP280;34673;52.808;17.856;2022-07-21T02:11:37;100704.91;;;23.06
48854;BMP280;34673;52.808;17.856;2022-07-21T02:14:04;100708.50;;;23.05
48854;BMP280;34673;52.808;17.856;2022-07-21T02:16:32;100702.34;;;23.04
48854;BMP280;34673;52.808;17.856;2022-07-21T02:19:01;100702.53;;;23.01
48854;BMP280;34673;52.808;17.856;2022-07-21T02:21:28;100698.41;;;22.95
48854;BMP280;34673;52.808;17.856;2022-07-21T02:23:55;100695.16;;;22.90
48854;BMP280;34673;52.808;17.856;2022-07-21T02:26:23;100711.69;;;22.94
48854;BMP280;34673;52.808;17.856;2022-07-21T02:28:50;100715.97;;;22.96
48854;BMP280;34673;52.808;17.856;2022-07-21T02:31:18;100705.69;;;22.90
48854;BMP280;34673;52.808;17.856;2022-07-21T02:33:45;100713.63;;;22.90
48854;BMP280;34673;52.808;17.856;2022-07-21T02:36:12;100702.72;;;22.81
48854;BMP280;34673;52.808;17.856;2022-07-21T02:38:40;100699.53;;;22.74
48854;BMP280;34673;52.808;17.856;2022-07-21T02:41:07;100705.53;;;22.77
48854;BMP280;34673;52.808;17.856;2022-07-21T02:43:34;100681.50;;;22.66
48854;BMP280;34673;52.808;17.856;2022-07-21T02:46:01;100696.31;;;22.69
48854;BMP280;34673;52.808;17.856;2022-07-21T02:48:29;100698.34;;;22.64
48854;BMP280;34673;52.808;17.856;2022-07-21T02:50:56;100709.47;;;22.69
48854;BMP280;34673;52.808;17.856;2022-07-21T02:53:23;100694.16;;;22.60
48854;BMP280;34673;52.808;17.856;2022-07-21T02:55:51;100700.28;;;22.60
48854;BMP280;34673;52.808;17.856;2022-07-21T02:58:25;100702.06;;;22.60
48854;BMP280;34673;52.808;17.856;2022-07-21T03:01:00;100695.25;;;22.55
48854;BMP280;34673;52.808;17.856;2022-07-21T03:03:31;100691.00;;;22.53
48854;BMP280;34673;52.808;17.856;2022-07-21T03:05:59;100690.28;;;22.49
48854;BMP280;34673;52.808;17.856;2022-07-21T03:08:27;100671.88;;;22.32
48854;BMP280;34673;52.808;17.856;2022-07-21T03:10:54;100695.97;;;22.42
48854;BMP280;34673;52.808;17.856;2022-07-21T03:13:22;100699.31;;;22.45
48854;BMP280;34673;52.808;17.856;2022-07-21T03:15:50;100703.66;;;22.46
48854;BMP280;34673;52.808;17.856;2022-07-21T03:18:17;100700.06;;;22.47
48854;BMP280;34673;52.808;17.856;2022-07-21T03:20:45;100696.50;;;22.48
48854;BMP280;34673;52.808;17.856;2022-07-21T03:23:12;100700.84;;;22.49
48854;BMP280;34673;52.808;17.856;2022-07-21T03:25:40;100690.63;;;22.43
48854;BMP280;34673;52.808;17.856;2022-07-21T03:28:07;100695.72;;;22.46
48854;BMP280;34673;52.808;17.856;2022-07-21T03:30:35;100703.66;;;22.46
48854;BMP280;34673;52.808;17.856;2022-07-21T03:33:03;100700.22;;;22.44
48854;BMP280;34673;52.808;17.856;2022-07-21T03:35:30;100697.75;;;22.41
48854;BMP280;34673;52.808;17.856;2022-07-21T03:37:59;100695.38;;;22.37
48854;BMP280;34673;52.808;17.856;2022-07-21T03:40:29;100691.25;;;22.31
48854;BMP280;34673;52.808;17.856;2022-07-21T03:42:58;100691.13;;;22.34
48854;BMP280;34673;52.808;17.856;2022-07-21T03:45:27;100688.53;;;22.32
48854;BMP280;34673;52.808;17.856;2022-07-21T03:47:59;100665.38;;;22.22
48854;BMP280;34673;52.808;17.856;2022-07-21T03:50:27;100680.56;;;22.34
48854;BMP280;34673;52.808;17.856;2022-07-21T03:52:55;100689.41;;;22.33
48854;BMP280;34673;52.808;17.856;2022-07-21T03:55:22;100680.19;;;22.24
48854;BMP280;34673;52.808;17.856;2022-07-21T03:57:56;100681.13;;;22.23
48854;BMP280;34673;52.808;17.856;2022-07-21T04:03:00;100675.75;;;22.25
48854;BMP280;34673;52.808;17.856;2022-07-21T04:05:29;100682.44;;;22.32
48854;BMP280;34673;52.808;17.856;2022-07-21T04:07:56;100677.47;;;22.26
48854;BMP280;34673;52.808;17.856;2022-07-21T04:10:27;100685.97;;;22.31
48854;BMP280;34673;52.808;17.856;2022-07-21T04:12:55;100686.84;;;22.31
48854;BMP280;34673;52.808;17.856;2022-07-21T04:15:23;100691.13;;;22.34
48854;BMP280;34673;52.808;17.856;2022-07-21T04:17:51;100689.06;;;22.39
48854;BMP280;34673;52.808;17.856;2022-07-21T04:20:18;100680.25;;;22.40
48854;BMP280;34673;52.808;17.856;2022-07-21T04:22:47;100688.78;;;22.45
48854;BMP280;34673;52.808;17.856;2022-07-21T04:25:16;100688.59;;;22.48
48854;BMP280;34673;52.808;17.856;2022-07-21T04:27:45;100692.69;;;22.54
48854;BMP280;34673;52.808;17.856;2022-07-21T04:30:15;100687.19;;;22.59
48854;BMP280;34673;52.808;17.856;2022-07-21T04:32:43;100683.63;;;22.60
48854;BMP280;34673;52.808;17.856;2022-07-21T04:35:11;100682.84;;;22.57
48854;BMP280;34673;52.808;17.856;2022-07-21T04:37:38;100675.72;;;22.60
48854;BMP280;34673;52.808;17.856;2022-07-21T04:40:07;100681.41;;;22.68
48854;BMP280;34673;52.808;17.856;2022-07-21T04:42:36;100683.72;;;22.74
48854;BMP280;34673;52.808;17.856;2022-07-21T04:45:04;100687.13;;;22.76
48854;BMP280;34673;52.808;17.856;2022-07-21T04:47:32;100685.09;;;22.81
48854;BMP280;34673;52.808;17.856;2022-07-21T04:49:59;100685.63;;;22.88
48854;BMP280;34673;52.808;17.856;2022-07-21T04:52:26;100684.59;;;22.90
48854;BMP280;34673;52.808;17.856;2022-07-21T04:54:54;100675.94;;;22.88
48854;BMP280;34673;52.808;17.856;2022-07-21T04:57:21;100680.75;;;22.97
48854;BMP280;34673;52.808;17.856;2022-07-21T04:59:48;100685.50;;;23.07
48854;BMP280;34673;52.808;17.856;2022-07-21T05:02:15;100688.75;;;23.12
48854;BMP280;34673;52.808;17.856;2022-07-21T05:04:42;100691.13;;;23.16
48854;BMP280;34673;52.808;17.856;2022-07-21T05:07:10;100681.25;;;23.20
48854;BMP280;34673;52.808;17.856;2022-07-21T05:09:38;100695.03;;;23.25
48854;BMP280;34673;52.808;17.856;2022-07-21T05:12:05;100687.91;;;23.27
48854;BMP280;34673;52.808;17.856;2022-07-21T05:14:32;100674.09;;;23.22
48854;BMP280;34673;52.808;17.856;2022-07-21T05:16:59;100682.44;;;23.30
48854;BMP280;34673;52.808;17.856;2022-07-21T05:19:27;100678.44;;;23.39
48854;BMP280;34673;52.808;17.856;2022-07-21T05:21:54;100683.47;;;23.43
48854;BMP280;34673;52.808;17.856;2022-07-21T05:24:21;100686.69;;;23.49
48854;BMP280;34673;52.808;17.856;2022-07-21T05:26:49;100687.28;;;23.54
48854;BMP280;34673;52.808;17.856;2022-07-21T05:29:17;100689.56;;;23.60
48854;BMP280;34673;52.808;17.856;2022-07-21T05:31:44;100684.28;;;23.60
48854;BMP280;34673;52.808;17.856;2022-07-21T05:34:12;100674.56;;;23.60
48854;BMP280;34673;52.808;17.856;2022-07-21T05:36:39;100672.34;;;23.68
48854;BMP280;34673;52.808;17.856;2022-07-21T05:39:06;100684.97;;;23.79
48854;BMP280;34673;52.808;17.856;2022-07-21T05:41:33;100693.97;;;23.91
48854;BMP280;34673;52.808;17.856;2022-07-21T05:44:00;100680.84;;;23.89
48854;BMP280;34673;52.808;17.856;2022-07-21T05:46:28;100702.78;;;24.06
48854;BMP280;34673;52.808;17.856;2022-07-21T05:48:55;100705.31;;;24.07
48854;BMP280;34673;52.808;17.856;2022-07-21T05:51:22;100701.41;;;24.15
48854;BMP280;34673;52.808;17.856;2022-07-21T05:53:50;100703.59;;;24.22
48854;BMP280;34673;52.808;17.856;2022-07-21T05:56:17;100700.75;;;24.25
48854;BMP280;34673;52.808;17.856;2022-07-21T05:58:44;100693.31;;;24.32
48854;BMP280;34673;52.808;17.856;2022-07-21T06:01:11;100689.34;;;24.39
48854;BMP280;34673;52.808;17.856;2022-07-21T06:03:52;100704.41;;;24.53
48854;BMP280;34673;52.808;17.856;2022-07-21T06:06:20;100708.19;;;24.63
48854;BMP280;34673;52.808;17.856;2022-07-21T06:08:48;100691.22;;;24.67
48854;BMP280;34673;52.808;17.856;2022-07-21T06:11:18;100697.13;;;24.85
48854;BMP280;34673;52.808;17.856;2022-07-21T06:13:46;100691.28;;;24.94
48854;BMP280;34673;52.808;17.856;2022-07-21T06:16:13;100686.25;;;25.04
48854;BMP280;34673;52.808;17.856;2022-07-21T06:18:41;100700.81;;;25.26
48854;BMP280;34673;52.808;17.856;2022-07-21T06:21:08;100705.13;;;25.41
48854;BMP280;34673;52.808;17.856;2022-07-21T06:23:35;100705.06;;;25.55
48854;BMP280;34673;52.808;17.856;2022-07-21T06:26:03;100701.44;;;25.71
48854;BMP280;34673;52.808;17.856;2022-07-21T06:28:30;100700.81;;;25.80
48854;BMP280;34673;52.808;17.856;2022-07-21T06:30:57;100696.41;;;25.93
48854;BMP280;34673;52.808;17.856;2022-07-21T06:33:24;100702.19;;;26.13
48854;BMP280;34673;52.808;17.856;2022-07-21T06:35:51;100699.22;;;26.30
48854;BMP280;34673;52.808;17.856;2022-07-21T06:38:19;100688.75;;;26.41
48854;BMP280;34673;52.808;17.856;2022-07-21T06:40:46;100673.13;;;26.49
48854;BMP280;34673;52.808;17.856;2022-07-21T06:43:13;100698.00;;;26.74
48854;BMP280;34673;52.808;17.856;2022-07-21T06:45:53;100697.75;;;26.90
48854;BMP280;34673;52.808;17.856;2022-07-21T06:48:20;100681.19;;;26.86
48854;BMP280;34673;52.808;17.856;2022-07-21T06:50:49;100699.19;;;27.07
48854;BMP280;34673;52.808;17.856;2022-07-21T06:53:16;100698.09;;;27.22
48854;BMP280;34673;52.808;17.856;2022-07-21T06:55:44;100701.84;;;27.44
48854;BMP280;34673;52.808;17.856;2022-07-21T06:58:17;100702.41;;;27.60
48854;BMP280;34673;52.808;17.856;2022-07-21T07:00:45;100692.09;;;27.79
48854;BMP280;34673;52.808;17.856;2022-07-21T07:03:14;100694.63;;;27.94
48854;BMP280;34673;52.808;17.856;2022-07-21T07:05:44;100694.16;;;28.00
48854;BMP280;34673;52.808;17.856;2022-07-21T07:08:12;100670.31;;;27.98
48854;BMP280;34673;52.808;17.856;2022-07-21T07:10:40;100684.28;;;28.13
48854;BMP280;34673;52.808;17.856;2022-07-21T07:13:08;100680.91;;;28.22
48854;BMP280;34673;52.808;17.856;2022-07-21T07:15:56;100674.25;;;28.28
48854;BMP280;34673;52.808;17.856;2022-07-21T07:18:23;100664.59;;;28.38
48854;BMP280;34673;52.808;17.856;2022-07-21T07:20:51;100666.44;;;28.60
48854;BMP280;34673;52.808;17.856;2022-07-21T07:23:19;100677.84;;;28.73
48854;BMP280;34673;52.808;17.856;2022-07-21T07:25:46;100670.78;;;28.95
48854;BMP280;34673;52.808;17.856;2022-07-21T07:28:14;100677.44;;;29.12
48854;BMP280;34673;52.808;17.856;2022-07-21T07:30:41;100674.88;;;29.33
48854;BMP280;34673;52.808;17.856;2022-07-21T07:33:08;100670.53;;;29.53
48854;BMP280;34673;52.808;17.856;2022-07-21T07:35:35;100671.81;;;29.81
48854;BMP280;34673;52.808;17.856;2022-07-21T07:38:02;100675.13;;;29.94
48854;BMP280;34673;52.808;17.856;2022-07-21T07:40:29;100681.88;;;29.98
48854;BMP280;34673;52.808;17.856;2022-07-21T07:42:57;100665.03;;;29.98
48854;BMP280;34673;52.808;17.856;2022-07-21T07:45:36;100672.78;;;30.22
48854;BMP280;34673;52.808;17.856;2022-07-21T07:48:04;100672.44;;;30.36
48854;BMP280;34673;52.808;17.856;2022-07-21T07:50:31;100670.41;;;30.50
48854;BMP280;34673;52.808;17.856;2022-07-21T07:52:59;100675.28;;;30.75
48854;BMP280;34673;52.808;17.856;2022-07-21T07:55:27;100668.63;;;30.90
48854;BMP280;34673;52.808;17.856;2022-07-21T07:57:54;100676.53;;;31.02
48854;BMP280;34673;52.808;17.856;2022-07-21T08:00:21;100683.03;;;31.09
48854;BMP280;34673;52.808;17.856;2022-07-21T08:03:08;100687.00;;;31.24
48854;BMP280;34673;52.808;17.856;2022-07-21T08:05:35;100694.63;;;31.39
48854;BMP280;34673;52.808;17.856;2022-07-21T08:08:03;100697.19;;;31.50
48854;BMP280;34673;52.808;17.856;2022-07-21T08:10:30;100683.94;;;31.58
48854;BMP280;34673;52.808;17.856;2022-07-21T08:13:08;100681.13;;;31.69
48854;BMP280;34673;52.808;17.856;2022-07-21T08:15:36;100677.75;;;31.67
48854;BMP280;34673;52.808;17.856;2022-07-21T08:18:04;100689.00;;;31.80
48854;BMP280;34673;52.808;17.856;2022-07-21T08:20:33;100674.38;;;31.85
48854;BMP280;34673;52.808;17.856;2022-07-21T08:23:01;100681.13;;;32.08
48854;BMP280;34673;52.808;17.856;2022-07-21T08:25:29;100672.66;;;32.22
48854;BMP280;34673;52.808;17.856;2022-07-21T08:27:57;100683.28;;;32.42
48854;BMP280;34673;52.808;17.856;2022-07-21T08:30:28;100673.84;;;32.57
48854;BMP280;34673;52.808;17.856;2022-07-21T08:33:01;100672.53;;;32.61
48854;BMP280;34673;52.808;17.856;2022-07-21T08:35:28;100649.97;;;32.64
48854;BMP280;34673;52.808;17.856;2022-07-21T08:37:59;100671.72;;;32.79
48854;BMP280;34673;52.808;17.856;2022-07-21T08:40:29;100664.97;;;32.84
48854;BMP280;34673;52.808;17.856;2022-07-21T08:42:57;100660.84;;;32.90
48854;BMP280;34673;52.808;17.856;2022-07-21T08:45:25;100656.53;;;32.97
48854;BMP280;34673;52.808;17.856;2022-07-21T08:47:55;100663.13;;;33.13
48854;BMP280;34673;52.808;17.856;2022-07-21T08:50:25;100654.84;;;33.24
48854;BMP280;34673;52.808;17.856;2022-07-21T08:52:52;100658.00;;;33.37
48854;BMP280;34673;52.808;17.856;2022-07-21T08:55:34;100650.66;;;33.57
48854;BMP280;34673;52.808;17.856;2022-07-21T08:58:03;100655.19;;;33.74
48854;BMP280;34673;52.808;17.856;2022-07-21T09:00:34;100656.53;;;33.79
48854;BMP280;34673;52.808;17.856;2022-07-21T09:05:37;100650.34;;;33.78
48854;BMP280;34673;52.808;17.856;2022-07-21T09:08:05;100640.34;;;33.88
48854;BMP280;34673;52.808;17.856;2022-07-21T09:10:34;100650.81;;;33.99
48854;BMP280;34673;52.808;17.856;2022-07-21T09:13:05;100655.97;;;34.11
48854;BMP280;34673;52.808;17.856;2022-07-21T09:15:34;100653.56;;;34.26
48854;BMP280;34673;52.808;17.856;2022-07-21T09:18:15;100647.53;;;34.32
48854;BMP280;34673;52.808;17.856;2022-07-21T09:20:48;100656.47;;;34.40
48854;BMP280;34673;52.808;17.856;2022-07-21T09:23:18;100658.13;;;34.41
48854;BMP280;34673;52.808;17.856;2022-07-21T09:25:48;100641.59;;;34.54
48854;BMP280;34673;52.808;17.856;2022-07-21T09:28:16;100648.22;;;34.68
48854;BMP280;34673;52.808;17.856;2022-07-21T09:31:05;100645.94;;;34.90
48854;BMP280;34673;52.808;17.856;2022-07-21T09:33:39;100654.03;;;34.98
48854;BMP280;34673;52.808;17.856;2022-07-21T09:38:45;100653.13;;;35.23
48854;BMP280;34673;52.808;17.856;2022-07-21T09:41:20;100636.81;;;35.33
48854;BMP280;34673;52.808;17.856;2022-07-21T09:43:49;100635.31;;;35.47
48854;BMP280;34673;52.808;17.856;2022-07-21T09:48:49;100626.59;;;35.69
48854;BMP280;34673;52.808;17.856;2022-07-21T09:51:37;100626.91;;;35.83
48854;BMP280;34673;52.808;17.856;2022-07-21T09:54:09;100619.16;;;35.88
48854;BMP280;34673;52.808;17.856;2022-07-21T09:56:38;100630.25;;;36.01
48854;BMP280;34673;52.808;17.856;2022-07-21T09:59:07;100623.88;;;35.94
48854;BMP280;34673;52.808;17.856;2022-07-21T10:01:35;100627.91;;;35.90
48854;BMP280;34673;52.808;17.856;2022-07-21T10:04:03;100614.78;;;35.95
48854;BMP280;34673;52.808;17.856;2022-07-21T10:06:34;100612.75;;;35.97
48854;BMP280;34673;52.808;17.856;2022-07-21T10:09:04;100611.03;;;36.12
48854;BMP280;34673;52.808;17.856;2022-07-21T10:11:31;100605.63;;;36.21
48854;BMP280;34673;52.808;17.856;2022-07-21T10:13:59;100607.34;;;36.22
48854;BMP280;34673;52.808;17.856;2022-07-21T10:16:26;100607.66;;;36.27
48854;BMP280;34673;52.808;17.856;2022-07-21T10:19:21;100607.63;;;36.35
48854;BMP280;34673;52.808;17.856;2022-07-21T10:24:54;100592.81;;;36.31
48854;BMP280;34673;52.808;17.856;2022-07-21T10:27:22;100604.94;;;36.35
48854;BMP280;34673;52.808;17.856;2022-07-21T10:30:10;100590.34;;;36.52
48854;BMP280;34673;52.808;17.856;2022-07-21T10:32:49;100584.28;;;36.58
48854;BMP280;34673;52.808;17.856;2022-07-21T10:35:28;100597.59;;;36.60
48854;BMP280;34673;52.808;17.856;2022-07-21T10:37:56;100593.75;;;36.54
48854;BMP280;34673;52.808;17.856;2022-07-21T10:45:33;100587.44;;;36.70
48854;BMP280;34673;52.808;17.856;2022-07-21T10:48:03;100567.06;;;36.68
48854;BMP280;34673;52.808;17.856;2022-07-21T10:50:32;100572.09;;;36.71
48854;BMP280;34673;52.808;17.856;2022-07-21T10:53:01;100568.38;;;36.72
48854;BMP280;34673;52.808;17.856;2022-07-21T10:55:35;100570.19;;;36.79
48854;BMP280;34673;52.808;17.856;2022-07-21T10:58:25;100574.69;;;36.87
48854;BMP280;34673;52.808;17.856;2022-07-21T11:00:57;100572.38;;;36.84
48854;BMP280;34673;52.808;17.856;2022-07-21T11:03:35;100557.84;;;36.85
48854;BMP280;34673;52.808;17.856;2022-07-21T11:08:36;100546.41;;;36.83
48854;BMP280;34673;52.808;17.856;2022-07-21T11:11:15;100551.09;;;36.89
48854;BMP280;34673;52.808;17.856;2022-07-21T11:14:18;100553.44;;;36.92
48854;BMP280;34673;52.808;17.856;2022-07-21T11:19:45;100554.91;;;37.03
48854;BMP280;34673;52.808;17.856;2022-07-21T11:22:28;100550.44;;;37.10
48854;BMP280;34673;52.808;17.856;2022-07-21T11:24:59;100551.88;;;37.21
48854;BMP280;34673;52.808;17.856;2022-07-21T11:27:30;100543.47;;;37.16
48854;BMP280;34673;52.808;17.856;2022-07-21T11:30:06;100547.13;;;37.23
48854;BMP280;34673;52.808;17.856;2022-07-21T11:32:46;100540.72;;;37.24
48854;BMP280;34673;52.808;17.856;2022-07-21T11:35:15;100538.31;;;37.29
48854;BMP280;34673;52.808;17.856;2022-07-21T11:37:45;100529.00;;;37.17
48854;BMP280;34673;52.808;17.856;2022-07-21T11:40:16;100534.75;;;37.14
48854;BMP280;34673;52.808;17.856;2022-07-21T11:42:46;100523.97;;;37.14
48854;BMP280;34673;52.808;17.856;2022-07-21T11:45:14;100523.47;;;37.10
48854;BMP280;34673;52.808;17.856;2022-07-21T11:47:41;100519.97;;;37.01
48854;BMP280;34673;52.808;17.856;2022-07-21T11:50:17;100527.41;;;36.99
48854;BMP280;34673;52.808;17.856;2022-07-21T11:52:45;100534.84;;;36.97
48854;BMP280;34673;52.808;17.856;2022-07-21T11:55:13;100536.53;;;36.98
48854;BMP280;34673;52.808;17.856;2022-07-21T11:57:44;100532.50;;;37.02
48854;BMP280;34673;52.808;17.856;2022-07-21T12:00:14;100533.81;;;36.98
48854;BMP280;34673;52.808;17.856;2022-07-21T12:02:47;100528.84;;;36.87
48854;BMP280;34673;52.808;17.856;2022-07-21T12:05:15;100526.94;;;36.73
48854;BMP280;34673;52.808;17.856;2022-07-21T12:07:45;100518.56;;;36.68
48854;BMP280;34673;52.808;17.856;2022-07-21T12:10:21;100517.72;;;36.67
48854;BMP280;34673;52.808;17.856;2022-07-21T12:12:50;100521.88;;;36.70
48854;BMP280;34673;52.808;17.856;2022-07-21T12:15:23;100512.19;;;36.60
48854;BMP280;34673;52.808;17.856;2022-07-21T12:17:56;100518.56;;;36.68
48854;BMP280;34673;52.808;17.856;2022-07-21T12:23:41;100510.47;;;36.68
48854;BMP280;34673;52.808;17.856;2022-07-21T12:25:50;100504.03;;;36.69
48854;BMP280;34673;52.808;17.856;2022-07-21T12:28:45;100501.72;;;36.66
48854;BMP280;34673;52.808;17.856;2022-07-21T12:31:18;100506.06;;;36.67
48854;BMP280;34673;52.808;17.856;2022-07-21T12:33:53;100484.50;;;36.67
48854;BMP280;34673;52.808;17.856;2022-07-21T12:36:43;100487.41;;;36.65
48854;BMP280;34673;52.808;17.856;2022-07-21T12:39:36;100497.56;;;36.55
48854;BMP280;34673;52.808;17.856;2022-07-21T12:42:33;100491.34;;;36.54
48854;BMP280;34673;52.808;17.856;2022-07-21T12:45:13;100485.22;;;36.60
48854;BMP280;34673;52.808;17.856;2022-07-21T12:47:40;100495.97;;;36.69
48854;BMP280;34673;52.808;17.856;2022-07-21T12:50:13;100484.41;;;36.60
48854;BMP280;34673;52.808;17.856;2022-07-21T12:52:48;100490.25;;;36.64
48854;BMP280;34673;52.808;17.856;2022-07-21T12:55:15;100464.22;;;36.48
48854;BMP280;34673;52.808;17.856;2022-07-21T12:57:42;100480.50;;;36.63
48854;BMP280;34673;52.808;17.856;2022-07-21T13:00:10;100475.28;;;36.61
48854;BMP280;34673;52.808;17.856;2022-07-21T13:02:47;100485.22;;;36.60
48854;BMP280;34673;52.808;17.856;2022-07-21T13:05:15;100482.94;;;36.49
48854;BMP280;34673;52.808;17.856;2022-07-21T13:07:43;100483.66;;;36.43
48854;BMP280;34673;52.808;17.856;2022-07-21T13:10:10;100486.16;;;36.45
48854;BMP280;34673;52.808;17.856;2022-07-21T13:12:38;100482.25;;;36.47
48854;BMP280;34673;52.808;17.856;2022-07-21T13:15:06;100481.25;;;36.48
48854;BMP280;34673;52.808;17.856;2022-07-21T13:17:33;100479.66;;;36.31
48854;BMP280;34673;52.808;17.856;2022-07-21T13:20:01;100468.47;;;36.19
48854;BMP280;34673;52.808;17.856;2022-07-21T13:22:33;100465.25;;;36.15
48854;BMP280;34673;52.808;17.856;2022-07-21T13:25:01;100452.47;;;36.17
48854;BMP280;34673;52.808;17.856;2022-07-21T13:27:29;100455.16;;;36.17
48854;BMP280;34673;52.808;17.856;2022-07-21T13:29:56;100460.22;;;36.12
48854;BMP280;34673;52.808;17.856;2022-07-21T13:32:23;100452.16;;;36.04
48854;BMP280;34673;52.808;17.856;2022-07-21T13:34:51;100447.50;;;35.98
48854;BMP280;34673;52.808;17.856;2022-07-21T13:37:38;100446.81;;;35.96
48854;BMP280;34673;52.808;17.856;2022-07-21T13:40:06;100436.38;;;36.01
48854;BMP280;34673;52.808;17.856;2022-07-21T13:42:55;100421.91;;;36.02
48854;BMP280;34673;52.808;17.856;2022-07-21T13:45:43;100425.94;;;35.98
48854;BMP280;34673;52.808;17.856;2022-07-21T13:48:10;100434.69;;;36.00
48854;BMP280;34673;52.808;17.856;2022-07-21T13:50:37;100442.09;;;35.98
48854;BMP280;34673;52.808;17.856;2022-07-21T13:53:05;100433.72;;;35.93
48854;BMP280;34673;52.808;17.856;2022-07-21T13:55:33;100431.88;;;35.85
48854;BMP280;34673;52.808;17.856;2022-07-21T13:58:01;100426.69;;;35.84
48854;BMP280;34673;52.808;17.856;2022-07-21T14:00:28;100426.03;;;35.82
48854;BMP280;34673;52.808;17.856;2022-07-21T14:02:56;100422.53;;;35.73
48854;BMP280;34673;52.808;17.856;2022-07-21T14:05:24;100414.97;;;35.68
48854;BMP280;34673;52.808;17.856;2022-07-21T14:07:51;100421.72;;;35.72
48854;BMP280;34673;52.808;17.856;2022-07-21T14:10:19;100419.53;;;35.68
48854;BMP280;34673;52.808;17.856;2022-07-21T14:12:46;100413.16;;;35.61
48854;BMP280;34673;52.808;17.856;2022-07-21T14:15:13;100420.88;;;35.56
48854;BMP280;34673;52.808;17.856;2022-07-21T14:17:40;100422.41;;;35.50
48854;BMP280;34673;52.808;17.856;2022-07-21T14:20:08;100411.66;;;35.42
48854;BMP280;34673;52.808;17.856;2022-07-21T14:22:35;100411.03;;;35.40
48854;BMP280;34673;52.808;17.856;2022-07-21T14:25:03;100407.66;;;35.38